Time;durP1;ratioP1;P1;durP2;ratioP2;P2;SDS_P1;SDS_P2;PMS_P1;PMS_P2;Temp;Humidity;BMP_temperature;BMP_pressure;BME280_temperature;BME280_humidity;BME280_pressure;Samples;Min_cycle;Max_cycle;Signal;HPM_P1;HPM_P2
2023/08/31 00:02:25;;;;;;;6.53;4.20;;;23.10;56.90;;;;;;5038592;28;20481;-77
2023/08/31 00:04:55;;;;;;;7.30;4.73;;;23.10;56.80;;;;;;5038702;28;20426;-78
2023/08/31 00:07:23;;;;;;;5.67;5.07;;;23.10;57.10;;;;;;5038754;28;20538;-79
2023/08/31 00:09:51;;;;;;;4.60;4.20;;;23.10;57.10;;;;;;5039037;28;20471;-80
2023/08/31 00:12:20;;;;;;;5.00;4.00;;;23.00;56.80;;;;;;5038764;28;20486;-79
2023/08/31 00:14:48;;;;;;;6.80;4.27;;;23.00;57.00;;;;;;5038018;28;20452;-77
2023/08/31 00:17:17;;;;;;;4.33;3.93;;;23.00;57.00;;;;;;5039547;28;20466;-77
2023/08/31 00:19:45;;;;;;;5.00;4.40;;;23.00;57.00;;;;;;5041461;28;20433;-81
2023/08/31 00:22:15;;;;;;;4.87;4.23;;;23.00;56.90;;;;;;5040584;28;20447;-80
2023/08/31 00:24:43;;;;;;;4.57;4.13;;;22.90;56.70;;;;;;5040085;28;20439;-79
2023/08/31 00:27:14;;;;;;;5.00;4.40;;;22.90;57.00;;;;;;5041646;28;20453;-79
2023/08/31 00:29:43;;;;;;;5.47;4.97;;;22.90;57.10;;;;;;5039604;28;20502;-79
2023/08/31 00:32:11;;;;;;;4.47;4.07;;;22.90;56.90;;;;;;5040851;28;20863;-80
2023/08/31 00:34:39;;;;;;;7.03;6.13;;;22.80;57.10;;;;;;5042136;28;20537;-81
2023/08/31 00:37:08;;;;;;;7.00;6.30;;;22.80;57.00;;;;;;5042276;28;20543;-81
2023/08/31 00:39:38;;;;;;;8.90;7.40;;;22.90;57.00;;;;;;5042747;28;20471;-81
2023/08/31 00:42:07;;;;;;;10.80;8.63;;;22.80;57.00;;;;;;5041782;28;20447;-81
2023/08/31 00:44:35;;;;;;;11.93;8.17;;;22.80;56.90;;;;;;5040200;28;20486;-80
2023/08/31 00:47:03;;;;;;;12.70;8.80;;;22.80;56.90;;;;;;5042240;28;20509;-80
2023/08/31 00:49:31;;;;;;;16.37;9.97;;;22.80;56.80;;;;;;5042007;28;20494;-79
2023/08/31 00:51:59;;;;;;;11.03;8.57;;;22.80;56.70;;;;;;5038111;28;20478;-79
2023/08/31 00:54:28;;;;;;;10.73;8.97;;;22.80;57.00;;;;;;5037790;28;20485;-78
2023/08/31 00:56:57;;;;;;;12.83;9.07;;;22.80;56.90;;;;;;5035228;28;21139;-78
2023/08/31 00:59:27;;;;;;;12.73;9.37;;;22.70;56.90;;;;;;5034863;28;20505;-79
2023/08/31 01:02:01;;;;;;;13.57;9.07;;;22.70;56.80;;;;;;5037287;28;20443;-79
2023/08/31 01:04:33;;;;;;;13.27;9.70;;;22.70;57.10;;;;;;5037640;28;20498;-79
2023/08/31 01:07:08;;;;;;;12.57;9.70;;;22.70;57.00;;;;;;5037022;28;20525;-79
2023/08/31 01:09:40;;;;;;;12.70;8.73;;;22.70;56.90;;;;;;5040004;28;20547;-81
2023/08/31 01:12:10;;;;;;;14.00;9.27;;;22.70;56.90;;;;;;5041372;28;20954;-81
2023/08/31 01:14:41;;;;;;;10.87;8.80;;;22.70;56.80;;;;;;5039834;28;20482;-81
2023/08/31 01:17:09;;;;;;;12.77;9.07;;;22.60;56.80;;;;;;5040178;28;20455;-83
2023/08/31 01:19:44;;;;;;;11.50;7.83;;;22.60;56.80;;;;;;5039627;28;20482;-81
2023/08/31 01:22:14;;;;;;;9.90;8.30;;;22.60;56.90;;;;;;5040341;28;20421;-81
2023/08/31 01:24:44;;;;;;;11.53;8.90;;;22.60;56.80;;;;;;5040030;28;20466;-83
2023/08/31 01:27:11;;;;;;;9.60;7.70;;;22.50;56.80;;;;;;5039937;28;20493;-80
2023/08/31 01:29:39;;;;;;;10.03;7.70;;;22.50;56.80;;;;;;5038855;28;20509;-81
2023/08/31 01:32:08;;;;;;;11.13;8.40;;;22.50;57.00;;;;;;5038821;28;20531;-81
2023/08/31 01:34:36;;;;;;;10.57;8.30;;;22.50;56.80;;;;;;5039054;28;20489;-80
2023/08/31 01:37:10;;;;;;;9.20;7.77;;;22.50;56.90;;;;;;5034960;28;20509;-81
2023/08/31 01:39:41;;;;;;;12.13;8.17;;;22.40;56.80;;;;;;5039892;28;20543;-80
2023/08/31 01:42:13;;;;;;;9.60;7.30;;;22.40;57.00;;;;;;5039983;28;20431;-81
2023/08/31 01:44:41;;;;;;;10.13;7.37;;;22.40;57.00;;;;;;5038636;28;20444;-81
2023/08/31 01:47:09;;;;;;;9.63;7.10;;;22.40;56.90;;;;;;5039513;28;20432;-81
2023/08/31 01:49:37;;;;;;;11.40;8.63;;;22.40;57.10;;;;;;5038652;28;20534;-81
2023/08/31 01:52:06;;;;;;;11.37;7.70;;;22.40;57.10;;;;;;5038265;28;20448;-81
2023/08/31 01:54:37;;;;;;;9.17;7.17;;;22.40;57.10;;;;;;5038147;28;20447;-81
2023/08/31 01:57:06;;;;;;;8.20;7.03;;;22.40;57.00;;;;;;5038887;28;20480;-81
2023/08/31 01:59:35;;;;;;;8.60;7.60;;;22.40;57.00;;;;;;5038471;28;20553;-81
2023/08/31 02:02:04;;;;;;;10.10;7.00;;;22.30;56.80;;;;;;5039270;28;20451;-81
2023/08/31 02:04:32;;;;;;;7.03;6.10;;;22.30;56.80;;;;;;5039353;28;20439;-81
2023/08/31 02:07:01;;;;;;;8.97;7.10;;;22.30;56.90;;;;;;5038722;28;20447;-81
2023/08/31 02:09:29;;;;;;;8.40;6.50;;;22.30;57.10;;;;;;5039114;28;21035;-80
2023/08/31 02:16:01;;;;;;;9.40;6.23;;;22.30;57.00;;;;;;5032403;28;20499;-80
2023/08/31 02:18:29;;;;;;;10.23;6.43;;;22.20;56.90;;;;;;5037907;28;20475;-81
2023/08/31 02:20:57;;;;;;;8.10;6.27;;;22.20;57.10;;;;;;5039613;28;20530;-82
2023/08/31 02:23:25;;;;;;;7.70;6.00;;;22.20;57.10;;;;;;5038867;28;20531;-82
2023/08/31 02:25:53;;;;;;;8.77;6.13;;;22.10;57.10;;;;;;5038489;28;20518;-82
2023/08/31 02:28:22;;;;;;;6.73;5.97;;;22.10;57.10;;;;;;5038149;28;20448;-81
2023/08/31 02:31:03;;;;;;;10.47;5.73;;;22.20;57.10;;;;;;5037340;28;20526;-81
2023/08/31 02:33:31;;;;;;;6.57;5.90;;;22.10;57.10;;;;;;5038502;28;20477;-81
2023/08/31 02:35:59;;;;;;;6.67;5.10;;;22.10;57.00;;;;;;5037778;28;20511;-81
2023/08/31 02:38:27;;;;;;;8.17;6.10;;;22.10;56.90;;;;;;5039059;28;20474;-81
2023/08/31 02:40:55;;;;;;;7.13;5.60;;;22.10;57.00;;;;;;5038838;28;20470;-82
2023/08/31 02:43:24;;;;;;;9.87;5.63;;;22.10;57.20;;;;;;5038480;28;20499;-82
2023/08/31 02:45:59;;;;;;;6.43;5.80;;;22.10;56.90;;;;;;5038088;28;20463;-81
2023/08/31 02:48:29;;;;;;;6.23;5.30;;;22.10;57.10;;;;;;5037028;28;20470;-80
2023/08/31 02:50:58;;;;;;;5.40;4.90;;;22.00;57.00;;;;;;5038415;28;20452;-81
2023/08/31 02:53:26;;;;;;;6.10;5.00;;;22.00;57.00;;;;;;5037676;28;20446;-81
2023/08/31 02:55:54;;;;;;;5.10;4.60;;;22.00;57.00;;;;;;5037770;28;20539;-81
2023/08/31 02:58:22;;;;;;;6.60;5.13;;;22.00;57.10;;;;;;5038217;28;20965;-81
2023/08/31 03:00:50;;;;;;;5.13;4.63;;;22.00;57.10;;;;;;5037808;28;20499;-81
2023/08/31 03:03:18;;;;;;;5.57;4.50;;;22.00;57.00;;;;;;5037387;28;20482;-81
2023/08/31 03:05:48;;;;;;;8.70;4.30;;;22.00;57.00;;;;;;5038142;28;20517;-81
2023/08/31 03:08:16;;;;;;;4.73;4.33;;;22.00;56.80;;;;;;5038164;28;20526;-81
2023/08/31 03:10:44;;;;;;;4.63;4.23;;;21.90;57.00;;;;;;5038456;28;20461;-81
2023/08/31 03:13:12;;;;;;;5.70;4.50;;;21.90;56.80;;;;;;5037758;28;20466;-81
2023/08/31 03:15:40;;;;;;;5.47;4.00;;;21.90;57.00;;;;;;5036526;28;20452;-82
2023/08/31 03:18:09;;;;;;;4.60;4.10;;;21.90;57.00;;;;;;5037561;28;20468;-82
2023/08/31 03:20:37;;;;;;;4.97;4.47;;;21.90;57.00;;;;;;5037738;28;20533;-81
2023/08/31 03:23:06;;;;;;;5.53;4.50;;;21.90;57.10;;;;;;5037454;28;20467;-81
2023/08/31 03:25:34;;;;;;;5.47;4.77;;;21.90;57.10;;;;;;5036416;28;20490;-80
2023/08/31 03:28:03;;;;;;;4.57;4.20;;;21.90;57.00;;;;;;5037644;28;20447;-82
2023/08/31 03:30:31;;;;;;;5.00;4.03;;;21.90;56.90;;;;;;5037372;28;20491;-81
2023/08/31 03:32:59;;;;;;;5.57;4.47;;;21.80;56.80;;;;;;5037688;28;20450;-81
2023/08/31 03:35:28;;;;;;;5.10;3.93;;;21.80;56.70;;;;;;5036640;28;20471;-81
2023/08/31 03:37:57;;;;;;;6.43;4.00;;;21.80;56.80;;;;;;5038087;28;20538;-81
2023/08/31 03:40:26;;;;;;;4.53;4.03;;;21.80;56.90;;;;;;5036459;28;20506;-81
2023/08/31 03:42:55;;;;;;;4.13;3.73;;;21.80;56.90;;;;;;5037364;28;20509;-81
2023/08/31 03:45:23;;;;;;;3.80;3.40;;;21.70;56.80;;;;;;5037221;28;20470;-81
2023/08/31 03:47:51;;;;;;;3.93;3.60;;;21.70;56.70;;;;;;5037335;28;20422;-81
2023/08/31 03:50:19;;;;;;;4.20;3.47;;;21.70;57.00;;;;;;5036875;28;20721;-81
2023/08/31 03:52:48;;;;;;;5.07;3.80;;;21.70;57.00;;;;;;5036845;28;20477;-81
2023/08/31 03:55:16;;;;;;;4.53;3.20;;;21.70;57.00;;;;;;5036867;28;20474;-81
2023/08/31 03:57:45;;;;;;;4.10;3.70;;;21.70;56.80;;;;;;5037250;28;20535;-81
2023/08/31 04:00:16;;;;;;;3.87;3.50;;;21.60;56.80;;;;;;5036584;28;20566;-81
2023/08/31 04:02:44;;;;;;;3.90;3.13;;;21.60;57.00;;;;;;5037034;28;20454;-81
2023/08/31 04:05:15;;;;;;;4.57;3.50;;;21.70;56.90;;;;;;5034475;28;20439;-79
2023/08/31 04:07:43;;;;;;;4.33;3.30;;;21.60;56.80;;;;;;5034956;28;20428;-80
2023/08/31 04:10:11;;;;;;;3.53;3.23;;;21.60;56.80;;;;;;5035237;28;20467;-80
2023/08/31 04:12:39;;;;;;;3.90;3.60;;;21.60;56.80;;;;;;5035952;28;20452;-81
2023/08/31 04:15:11;;;;;;;3.93;3.33;;;21.70;56.90;;;;;;5036255;28;20523;-81
2023/08/31 04:17:39;;;;;;;5.63;3.10;;;21.60;56.60;;;;;;5035686;28;20475;-80
2023/08/31 04:20:08;;;;;;;4.77;3.00;;;21.60;56.80;;;;;;5036888;28;20471;-81
2023/08/31 04:22:36;;;;;;;3.57;3.20;;;21.60;56.70;;;;;;5036895;28;20542;-80
2023/08/31 04:25:05;;;;;;;3.87;3.37;;;21.60;56.70;;;;;;5036756;28;20447;-80
2023/08/31 04:27:33;;;;;;;3.03;2.80;;;21.60;56.90;;;;;;5036277;28;20448;-80
2023/08/31 04:30:02;;;;;;;3.27;2.70;;;21.60;56.90;;;;;;5035240;28;20498;-80
2023/08/31 04:32:31;;;;;;;4.30;2.80;;;21.60;56.80;;;;;;5036607;28;20444;-80
2023/08/31 04:35:00;;;;;;;3.10;2.90;;;21.60;56.80;;;;;;5031142;28;20463;-79
2023/08/31 04:37:28;;;;;;;3.03;2.73;;;21.60;56.80;;;;;;5036450;28;20598;-81
2023/08/31 04:39:55;;;;;;;7.17;3.23;;;21.60;56.90;;;;;;5036171;28;20511;-80
2023/08/31 04:42:24;;;;;;;2.77;2.57;;;21.60;56.90;;;;;;5036404;28;20518;-80
2023/08/31 04:44:52;;;;;;;2.67;2.47;;;21.60;56.90;;;;;;5035749;28;20515;-80
2023/08/31 04:47:20;;;;;;;3.90;2.90;;;21.60;57.00;;;;;;5037906;28;20519;-79
2023/08/31 04:49:50;;;;;;;2.73;2.53;;;21.60;56.80;;;;;;5039823;28;20486;-80
2023/08/31 04:52:18;;;;;;;3.50;2.87;;;21.60;56.80;;;;;;5038205;28;20475;-80
2023/08/31 04:54:46;;;;;;;3.10;2.80;;;21.60;56.80;;;;;;5038663;28;20467;-80
2023/08/31 04:57:14;;;;;;;3.13;2.83;;;21.60;56.90;;;;;;5040182;28;20447;-81
2023/08/31 04:59:42;;;;;;;2.37;2.27;;;21.50;56.80;;;;;;5039313;28;20467;-79
2023/08/31 05:02:10;;;;;;;2.83;2.50;;;21.60;56.90;;;;;;5039136;28;20443;-80
2023/08/31 05:04:38;;;;;;;2.93;2.20;;;21.50;56.90;;;;;;5039116;28;20542;-81
2023/08/31 05:07:08;;;;;;;2.90;2.70;;;21.50;56.90;;;;;;5039375;28;20530;-79
2023/08/31 05:09:36;;;;;;;2.30;2.20;;;21.50;56.80;;;;;;5038975;28;20501;-81
2023/08/31 05:12:04;;;;;;;2.60;2.40;;;21.50;56.90;;;;;;5039218;28;20474;-80
2023/08/31 05:14:36;;;;;;;2.63;2.43;;;21.60;56.80;;;;;;5038777;28;20458;-80
2023/08/31 05:17:05;;;;;;;2.80;2.60;;;21.60;56.80;;;;;;5038648;28;20502;-80
2023/08/31 05:19:33;;;;;;;5.57;2.50;;;21.50;56.90;;;;;;5038336;28;20467;-80
2023/08/31 05:22:01;;;;;;;2.60;2.40;;;21.50;56.80;;;;;;5037903;28;20494;-80
2023/08/31 05:24:31;;;;;;;3.20;2.53;;;21.50;56.90;;;;;;5037710;28;20447;-80
2023/08/31 05:26:59;;;;;;;2.77;2.57;;;21.50;56.80;;;;;;5038170;28;20447;-80
2023/08/31 05:29:27;;;;;;;2.40;2.30;;;21.50;56.50;;;;;;5038469;28;20475;-80
2023/08/31 05:31:55;;;;;;;2.50;2.30;;;21.50;56.70;;;;;;5038219;28;21053;-80
2023/08/31 05:34:23;;;;;;;2.20;2.10;;;21.50;56.70;;;;;;5036398;28;20443;-80
2023/08/31 05:36:51;;;;;;;2.50;2.33;;;21.60;56.70;;;;;;5031122;28;20509;-80
2023/08/31 05:39:18;;;;;;;3.00;2.43;;;21.50;56.50;;;;;;5037488;28;20495;-78
2023/08/31 05:41:48;;;;;;;2.30;2.20;;;21.60;56.70;;;;;;5038755;28;20475;-80
2023/08/31 05:44:16;;;;;;;2.73;2.13;;;21.60;56.60;;;;;;5038748;28;20519;-79
2023/08/31 05:46:44;;;;;;;2.40;2.10;;;21.60;56.60;;;;;;5038182;28;20475;-79
2023/08/31 05:49:13;;;;;;;2.20;2.00;;;21.60;56.70;;;;;;5037022;28;20490;-79
2023/08/31 05:51:40;;;;;;;3.00;2.30;;;21.60;56.60;;;;;;5037496;28;20432;-81
2023/08/31 05:54:11;;;;;;;2.43;2.23;;;21.60;56.70;;;;;;5038885;28;20515;-80
2023/08/31 05:56:40;;;;;;;2.40;2.30;;;21.60;56.40;;;;;;5038611;28;20431;-79
2023/08/31 05:59:09;;;;;;;3.93;2.70;;;21.60;56.50;;;;;;5037227;28;20882;-79
2023/08/31 06:01:37;;;;;;;2.10;1.90;;;21.60;56.60;;;;;;5038279;28;20502;-81
2023/08/31 06:04:06;;;;;;;2.00;1.80;;;21.60;56.60;;;;;;5038704;28;20452;-80
2023/08/31 06:06:34;;;;;;;2.93;2.23;;;21.70;56.60;;;;;;5038303;28;20444;-79
2023/08/31 06:09:02;;;;;;;2.10;1.70;;;21.70;56.60;;;;;;5034929;28;20470;-79
2023/08/31 06:11:30;;;;;;;2.60;2.30;;;21.80;56.50;;;;;;5037259;28;20532;-79
2023/08/31 06:13:58;;;;;;;2.20;2.00;;;21.80;56.50;;;;;;5037087;28;20448;-79
2023/08/31 06:16:28;;;;;;;2.20;2.00;;;21.80;56.30;;;;;;5037474;28;20479;-78
2023/08/31 06:18:55;;;;;;;1.70;1.60;;;21.90;56.40;;;;;;5036877;28;20513;-79
2023/08/31 06:21:23;;;;;;;1.90;1.80;;;21.90;56.40;;;;;;5037251;28;20506;-79
2023/08/31 06:23:51;;;;;;;1.90;1.80;;;21.90;56.40;;;;;;5037313;28;20446;-80
2023/08/31 06:26:19;;;;;;;2.40;2.20;;;21.90;56.30;;;;;;5037083;28;20470;-80
2023/08/31 06:28:47;;;;;;;2.70;1.53;;;21.90;56.30;;;;;;5037178;28;20533;-80
2023/08/31 06:31:15;;;;;;;2.03;1.80;;;22.00;56.50;;;;;;5038392;28;20515;-80
2023/08/31 06:33:44;;;;;;;1.90;1.73;;;22.00;56.20;;;;;;5037885;28;20436;-80
2023/08/31 06:36:12;;;;;;;2.00;1.90;;;22.10;56.50;;;;;;5031977;28;20539;-79
2023/08/31 06:38:40;;;;;;;1.90;1.80;;;22.10;56.10;;;;;;5036674;28;20444;-80
2023/08/31 06:41:09;;;;;;;1.60;1.50;;;22.20;56.50;;;;;;5032650;28;20467;-80
2023/08/31 06:43:37;;;;;;;1.80;1.60;;;22.20;56.20;;;;;;5032955;28;20483;-80
2023/08/31 06:46:04;;;;;;;1.70;1.60;;;22.30;56.30;;;;;;5034678;28;20478;-80
2023/08/31 06:48:52;;;;;;;3.57;1.60;;;22.30;55.90;;;;;;5034765;28;20870;-80
2023/08/31 06:51:20;;;;;;;2.03;1.80;;;22.40;56.20;;;;;;5035309;28;20498;-79
2023/08/31 06:53:51;;;;;;;2.70;1.70;;;22.40;56.30;;;;;;5034247;28;20436;-78
2023/08/31 06:56:19;;;;;;;2.60;1.97;;;22.40;56.00;;;;;;5035737;28;20478;-80
2023/08/31 06:58:48;;;;;;;2.40;1.60;;;22.40;56.00;;;;;;5034989;28;20562;-79
2023/08/31 07:01:16;;;;;;;4.07;1.50;;;22.40;56.20;;;;;;5034201;28;20475;-79
2023/08/31 07:03:43;;;;;;;1.90;1.80;;;22.50;56.30;;;;;;5034987;28;20451;-80
2023/08/31 07:06:13;;;;;;;1.50;1.40;;;22.50;56.20;;;;;;5036487;28;20451;-78
2023/08/31 07:08:45;;;;;;;1.70;1.60;;;22.50;56.20;;;;;;5035763;28;20505;-80
2023/08/31 07:11:13;;;;;;;1.60;1.50;;;22.40;56.10;;;;;;5035246;28;20421;-82
2023/08/31 07:13:41;;;;;;;2.03;1.60;;;22.50;56.40;;;;;;5034409;28;20528;-80
2023/08/31 07:16:09;;;;;;;2.30;1.77;;;22.50;56.30;;;;;;5035367;28;20454;-80
2023/08/31 07:18:38;;;;;;;1.60;1.50;;;22.50;56.30;;;;;;5036187;28;20442;-81
2023/08/31 07:21:08;;;;;;;1.70;1.60;;;22.50;56.30;;;;;;5033928;28;20477;-79
2023/08/31 07:23:40;;;;;;;2.10;1.70;;;22.50;56.20;;;;;;5034131;28;20515;-78
2023/08/31 07:26:08;;;;;;;1.57;1.47;;;22.50;56.40;;;;;;5033460;28;20448;-80
2023/08/31 07:28:35;;;;;;;1.73;1.63;;;22.60;56.40;;;;;;5033171;28;20482;-79
2023/08/31 07:31:04;;;;;;;2.40;1.83;;;22.60;56.50;;;;;;5032873;28;20474;-79
2023/08/31 07:33:32;;;;;;;1.60;1.50;;;22.60;56.50;;;;;;5033355;28;20456;-81
2023/08/31 07:36:01;;;;;;;1.73;1.63;;;22.60;56.30;;;;;;5037628;28;20435;-77
2023/08/31 07:38:31;;;;;;;1.70;1.60;;;22.60;56.30;;;;;;5032225;28;20483;-79
2023/08/31 07:41:02;;;;;;;1.73;1.53;;;22.70;56.20;;;;;;5033559;28;20510;-79
2023/08/31 07:43:30;;;;;;;1.77;1.50;;;22.60;56.20;;;;;;5034284;28;20452;-81
2023/08/31 07:45:59;;;;;;;4.30;3.90;;;22.70;59.20;;;;;;5032662;28;20531;-76
2023/08/31 07:48:26;;;;;;;7.20;5.77;;;21.40;57.80;;;;;;5032417;28;20782;-77
2023/08/31 07:50:55;;;;;;;12.70;4.50;;;20.80;60.80;;;;;;5032104;28;20889;-77
2023/08/31 07:53:22;;;;;;;6.10;4.53;;;20.00;61.10;;;;;;5032798;28;20435;-74
2023/08/31 07:55:55;;;;;;;6.77;5.30;;;19.60;63.70;;;;;;5031481;28;20479;-76
2023/08/31 07:58:24;;;;;;;6.00;4.40;;;19.20;64.90;;;;;;5031677;28;20439;-76
2023/08/31 08:00:53;;;;;;;7.53;5.17;;;18.70;68.30;;;;;;5031663;28;20623;-77
2023/08/31 08:03:21;;;;;;;7.40;4.90;;;18.50;66.80;;;;;;5031706;28;20472;-77
2023/08/31 08:05:49;;;;;;;6.70;4.43;;;18.40;68.50;;;;;;5031768;28;20497;-75
2023/08/31 08:08:17;;;;;;;10.50;4.70;;;18.00;70.60;;;;;;5032101;28;20432;-73
2023/08/31 08:10:46;;;;;;;5.47;4.00;;;17.80;72.80;;;;;;5031408;28;20463;-76
2023/08/31 08:13:15;;;;;;;8.67;4.67;;;17.80;75.50;;;;;;5031598;28;20444;-77
2023/08/31 08:15:44;;;;;;;6.40;4.53;;;18.10;74.20;;;;;;5030054;28;20699;-77
2023/08/31 08:18:12;;;;;;;9.80;5.07;;;18.10;73.70;;;;;;5031385;28;20439;-76
2023/08/31 08:20:40;;;;;;;3.97;3.20;;;18.20;74.20;;;;;;5030982;28;20462;-77
2023/08/31 08:23:08;;;;;;;3.13;2.83;;;18.80;79.70;;;;;;5035095;28;20536;-77
2023/08/31 08:25:36;;;;;;;4.40;2.30;;;19.70;76.90;;;;;;5035098;28;20992;-76
2023/08/31 08:28:04;;;;;;;3.83;2.33;;;20.50;73.30;;;;;;5034817;28;20530;-76
2023/08/31 08:30:32;;;;;;;4.60;2.20;;;21.20;69.40;;;;;;5034092;28;20475;-78
2023/08/31 08:33:02;;;;;;;2.13;1.90;;;21.70;67.90;;;;;;5035170;28;20917;-76
2023/08/31 08:35:31;;;;;;;3.93;1.80;;;22.10;65.40;;;;;;5034905;28;20443;-77
2023/08/31 08:37:59;;;;;;;4.20;2.63;;;22.50;64.00;;;;;;5035478;28;20539;-77
2023/08/31 08:40:27;;;;;;;4.90;2.23;;;22.80;62.60;;;;;;5035581;28;20487;-78
2023/08/31 08:42:56;;;;;;;2.40;2.00;;;23.10;61.50;;;;;;5035052;28;20506;-77
2023/08/31 08:45:25;;;;;;;4.03;2.20;;;23.30;60.30;;;;;;5035256;28;20518;-76
2023/08/31 08:47:54;;;;;;;6.00;2.07;;;23.50;59.30;;;;;;5035078;28;20466;-76
2023/08/31 08:50:23;;;;;;;5.17;2.30;;;23.60;59.00;;;;;;5033543;28;20478;-76
2023/08/31 08:52:51;;;;;;;2.10;2.00;;;23.80;58.90;;;;;;5034338;28;20440;-77
2023/08/31 08:55:20;;;;;;;2.13;2.03;;;24.10;58.10;;;;;;5034498;28;20880;-77
2023/08/31 08:57:48;;;;;;;1.90;1.80;;;24.30;57.40;;;;;;5034169;28;20450;-76
2023/08/31 09:00:17;;;;;;;2.03;1.93;;;24.40;57.00;;;;;;5033407;28;20471;-77
2023/08/31 09:02:45;;;;;;;4.50;1.80;;;24.80;56.80;;;;;;5032118;28;20481;-76
2023/08/31 09:05:13;;;;;;;4.17;2.10;;;25.00;56.00;;;;;;5032440;28;20447;-75
2023/08/31 09:08:04;;;;;;;2.40;2.20;;;25.20;55.30;;;;;;5032272;28;20450;-76
2023/08/31 09:10:35;;;;;;;2.00;1.90;;;25.30;54.80;;;;;;5032633;28;20538;-77
2023/08/31 09:13:06;;;;;;;1.90;1.80;;;25.40;54.60;;;;;;5031734;28;20470;-76
2023/08/31 09:15:39;;;;;;;1.90;1.80;;;25.50;54.20;;;;;;5032001;28;20550;-74
2023/08/31 09:18:07;;;;;;;2.33;2.13;;;25.60;54.00;;;;;;5033863;28;20495;-76
2023/08/31 09:20:46;;;;;;;2.33;2.23;;;25.70;54.10;;;;;;5033759;28;20487;-77
2023/08/31 09:23:15;;;;;;;2.40;1.93;;;25.90;53.90;;;;;;5033677;28;20475;-76
2023/08/31 09:25:44;;;;;;;2.20;2.00;;;26.00;53.40;;;;;;5032514;28;20447;-76
2023/08/31 09:28:13;;;;;;;1.80;1.70;;;26.20;53.40;;;;;;5033428;28;20482;-77
2023/08/31 09:30:41;;;;;;;1.87;1.77;;;26.30;53.20;;;;;;5033490;28;20561;-77
2023/08/31 09:33:10;;;;;;;2.13;1.90;;;26.40;52.90;;;;;;5032436;28;20436;-77
2023/08/31 09:35:41;;;;;;;2.87;2.60;;;26.60;52.90;;;;;;5033551;28;20444;-77
2023/08/31 09:38:10;;;;;;;2.60;2.07;;;26.80;53.20;;;;;;5033885;28;20410;-77
2023/08/31 09:40:39;;;;;;;2.40;2.20;;;27.00;52.90;;;;;;5033610;28;20433;-76
2023/08/31 09:43:09;;;;;;;2.33;1.90;;;27.20;52.70;;;;;;5032827;28;20454;-76
2023/08/31 09:45:38;;;;;;;2.00;1.90;;;27.30;52.40;;;;;;5033556;28;20413;-77
2023/08/31 09:48:13;;;;;;;2.13;2.03;;;27.40;52.50;;;;;;5033682;28;20493;-77
2023/08/31 09:50:41;;;;;;;1.90;1.80;;;27.70;52.40;;;;;;5033448;28;20495;-77
2023/08/31 09:53:11;;;;;;;1.73;1.63;;;27.80;52.10;;;;;;5033892;28;20493;-76
2023/08/31 09:55:41;;;;;;;2.87;1.90;;;28.00;51.20;;;;;;5032307;28;20447;-76
2023/08/31 09:58:09;;;;;;;1.70;1.60;;;27.80;50.80;;;;;;5032867;28;20502;-76
2023/08/31 10:00:44;;;;;;;1.90;1.80;;;27.60;51.10;;;;;;5032539;28;20459;-77
2023/08/31 10:03:14;;;;;;;2.07;1.60;;;27.40;51.50;;;;;;5032866;28;21054;-77
2023/08/31 10:05:47;;;;;;;1.67;1.57;;;27.30;51.80;;;;;;5032599;28;20507;-77
2023/08/31 10:08:16;;;;;;;1.50;1.40;;;27.30;51.90;;;;;;5033012;28;20422;-75
2023/08/31 10:10:46;;;;;;;1.70;1.60;;;27.40;52.30;;;;;;5033118;28;20442;-76
2023/08/31 10:13:15;;;;;;;1.50;1.50;;;27.50;52.20;;;;;;5032928;28;20414;-77
2023/08/31 10:15:44;;;;;;;1.87;1.57;;;27.40;51.90;;;;;;5032930;28;20489;-78
2023/08/31 10:18:12;;;;;;;1.90;1.80;;;27.30;52.00;;;;;;5033459;28;20480;-77
2023/08/31 10:20:43;;;;;;;2.00;1.90;;;27.20;52.30;;;;;;5032751;28;20570;-77
2023/08/31 10:23:12;;;;;;;2.17;1.87;;;27.20;52.40;;;;;;5033063;28;20471;-76
2023/08/31 10:26:07;;;;;;;2.00;1.80;;;27.20;52.40;;;;;;5032173;28;20471;-77
2023/08/31 10:28:42;;;;;;;2.17;2.03;;;27.20;52.40;;;;;;5032975;28;20445;-75
2023/08/31 10:31:10;;;;;;;2.10;2.00;;;27.30;52.30;;;;;;5031968;28;20522;-77
2023/08/31 10:33:42;;;;;;;1.87;1.77;;;27.20;52.50;;;;;;5029220;28;20527;-78
2023/08/31 10:36:10;;;;;;;2.13;2.03;;;27.10;52.30;;;;;;5032803;28;20512;-77
2023/08/31 10:38:39;;;;;;;2.10;2.00;;;27.10;52.40;;;;;;5030049;28;20498;-77
2023/08/31 10:41:21;;;;;;;2.27;1.67;;;27.10;52.60;;;;;;5032680;28;20410;-77
2023/08/31 10:43:51;;;;;;;2.23;2.13;;;27.30;52.90;;;;;;5031474;28;21006;-78
2023/08/31 10:46:19;;;;;;;2.37;2.17;;;27.50;52.40;;;;;;5029597;28;20485;-77
2023/08/31 10:48:53;;;;;;;2.30;2.13;;;27.70;52.40;;;;;;5032185;28;20422;-77
2023/08/31 10:51:29;;;;;;;1.97;1.87;;;27.90;52.50;;;;;;5030140;28;20439;-77
2023/08/31 10:54:07;;;;;;;2.03;1.80;;;27.90;52.10;;;;;;5032855;28;20497;-78
2023/08/31 10:56:52;;;;;;;1.53;1.43;;;27.80;52.30;;;;;;5031251;28;20518;-76
2023/08/31 10:59:20;;;;;;;1.50;1.40;;;27.70;52.20;;;;;;5029371;28;20487;-75
2023/08/31 11:01:55;;;;;;;1.80;1.70;;;27.70;52.20;;;;;;5032174;28;20498;-74
2023/08/31 11:04:23;;;;;;;1.73;1.63;;;27.70;52.20;;;;;;5030922;28;20449;-76
2023/08/31 11:07:16;;;;;;;1.93;1.83;;;27.70;52.20;;;;;;5032479;28;20435;-76
2023/08/31 11:09:45;;;;;;;2.93;2.07;;;27.80;52.70;;;;;;5031771;28;20448;-75
2023/08/31 11:12:14;;;;;;;2.33;1.40;;;28.00;52.30;;;;;;5032630;28;20865;-75
2023/08/31 11:14:42;;;;;;;1.50;1.40;;;28.10;52.20;;;;;;5032071;28;20428;-75
2023/08/31 11:17:13;;;;;;;3.27;1.83;;;28.10;51.80;;;;;;5031775;28;20468;-74
2023/08/31 11:19:41;;;;;;;1.80;1.70;;;28.00;51.90;;;;;;5029983;28;20467;-75
2023/08/31 11:22:11;;;;;;;2.10;1.80;;;27.90;52.20;;;;;;5032175;28;20431;-75
2023/08/31 11:24:40;;;;;;;3.50;2.00;;;27.90;52.60;;;;;;5031114;28;20980;-73
2023/08/31 11:27:09;;;;;;;1.97;1.87;;;28.00;51.40;;;;;;5030495;28;20508;-76
2023/08/31 11:29:40;;;;;;;2.90;1.70;;;27.90;51.80;;;;;;5031698;28;20466;-74
2023/08/31 11:32:08;;;;;;;3.47;1.97;;;27.70;52.90;;;;;;5032209;28;20437;-76
2023/08/31 11:34:36;;;;;;;2.30;1.83;;;27.80;52.40;;;;;;5030383;28;20544;-77
2023/08/31 11:37:04;;;;;;;2.33;1.87;;;27.90;52.20;;;;;;5032178;28;20509;-75
2023/08/31 11:39:32;;;;;;;2.73;1.67;;;28.00;52.20;;;;;;5032032;28;20474;-76
2023/08/31 11:42:01;;;;;;;2.03;1.87;;;28.10;52.00;;;;;;5031526;28;20426;-76
2023/08/31 11:44:29;;;;;;;2.47;1.73;;;28.30;51.40;;;;;;5030836;28;21082;-76
2023/08/31 11:46:58;;;;;;;1.70;1.50;;;28.20;51.30;;;;;;5032154;28;20505;-75
2023/08/31 11:49:27;;;;;;;1.83;1.63;;;28.10;51.40;;;;;;5031136;28;20480;-75
2023/08/31 11:51:55;;;;;;;2.20;1.50;;;27.90;51.80;;;;;;5031678;28;20535;-76
2023/08/31 11:54:25;;;;;;;1.67;1.57;;;27.80;51.90;;;;;;5030752;28;20474;-77
2023/08/31 11:56:53;;;;;;;3.00;1.77;;;27.70;52.20;;;;;;5028775;28;20478;-76
2023/08/31 11:59:22;;;;;;;3.60;1.50;;;27.60;52.20;;;;;;5031030;28;20440;-76
2023/08/31 12:01:51;;;;;;;3.53;1.90;;;27.50;52.50;;;;;;5029057;28;20501;-77
2023/08/31 12:04:23;;;;;;;1.73;1.63;;;27.40;52.80;;;;;;5031419;28;20441;-77
2023/08/31 12:06:53;;;;;;;3.13;1.83;;;27.40;52.70;;;;;;5028594;28;20414;-76
2023/08/31 12:09:21;;;;;;;1.50;1.40;;;27.40;53.00;;;;;;5031495;28;20457;-74
2023/08/31 12:11:52;;;;;;;2.07;1.73;;;27.40;52.80;;;;;;5031194;28;20498;-76
2023/08/31 12:14:20;;;;;;;1.80;1.70;;;27.50;52.70;;;;;;5031277;28;20909;-76
2023/08/31 12:16:49;;;;;;;2.57;1.73;;;27.50;52.80;;;;;;5031720;28;20418;-76
2023/08/31 12:19:17;;;;;;;2.47;1.60;;;27.70;52.90;;;;;;5031690;28;20483;-75
2023/08/31 12:21:47;;;;;;;3.30;1.57;;;28.00;52.20;;;;;;5033670;28;21014;-76
2023/08/31 12:24:19;;;;;;;1.67;1.40;;;28.20;51.60;;;;;;5030552;28;20506;-76
2023/08/31 12:26:46;;;;;;;1.53;1.43;;;28.30;51.10;;;;;;5032342;28;20423;-76
2023/08/31 12:29:15;;;;;;;1.53;1.43;;;28.30;51.10;;;;;;5031174;28;20517;-76
2023/08/31 12:31:43;;;;;;;1.90;1.80;;;28.40;51.30;;;;;;5030604;28;20480;-76
2023/08/31 12:34:14;;;;;;;1.40;1.37;;;28.90;51.20;;;;;;5031659;28;20466;-77
2023/08/31 12:36:42;;;;;;;1.57;1.43;;;30.10;50.40;;;;;;5032037;28;20406;-77
2023/08/31 12:39:11;;;;;;;1.57;1.47;;;31.60;47.40;;;;;;5030690;28;20493;-76
2023/08/31 12:41:40;;;;;;;1.30;1.30;;;32.20;45.50;;;;;;5031201;28;20436;-76
2023/08/31 12:44:07;;;;;;;1.43;1.33;;;33.10;44.20;;;;;;5031190;28;20901;-76
2023/08/31 12:46:36;;;;;;;2.57;1.50;;;33.60;42.00;;;;;;5031418;28;20448;-75
2023/08/31 12:49:04;;;;;;;1.00;1.00;;;33.60;41.50;;;;;;5030792;28;20451;-75
2023/08/31 12:51:32;;;;;;;1.30;1.30;;;34.50;40.20;;;;;;5031150;28;20419;-75
2023/08/31 12:54:00;;;;;;;3.53;1.10;;;34.80;39.40;;;;;;5030893;28;20514;-76
2023/08/31 12:56:30;;;;;;;1.10;1.03;;;34.70;39.00;;;;;;5030401;28;20439;-76
2023/08/31 12:58:58;;;;;;;1.10;1.10;;;34.10;39.30;;;;;;5030427;28;20459;-75
2023/08/31 13:01:26;;;;;;;1.30;1.20;;;33.20;39.80;;;;;;5031309;28;20514;-75